createdAt,value
2023-01-20T00:00:20.244Z,0.20
2023-01-20T00:03:15.065Z,0.20
2023-01-20T00:06:08.196Z,0.20
2023-01-20T00:09:18.418Z,0.20
2023-01-20T00:11:56.087Z,0.10
2023-01-20T00:14:50.737Z,0.10
2023-01-20T00:17:33.348Z,0.20
2023-01-20T00:23:34.759Z,0.10
2023-01-20T00:26:57.272Z,0.10
2023-01-20T00:29:58.935Z,0.10
2023-01-20T00:32:49.226Z,0.10
2023-01-20T00:35:38.107Z,0.00
2023-01-20T00:39:15.295Z,-0.10
2023-01-20T00:41:26.226Z,-0.10
2023-01-20T00:43:57.227Z,-0.10
2023-01-20T00:46:46.900Z,-0.10
2023-01-20T00:49:48.220Z,-0.10
2023-01-20T00:52:49.601Z,-0.20
2023-01-20T00:55:38.133Z,-0.20
2023-01-20T00:58:14.642Z,-0.20
2023-01-20T01:00:54.633Z,-0.10
2023-01-20T01:04:00.454Z,-0.10
2023-01-20T01:06:43.174Z,-0.10
2023-01-20T01:09:16.980Z,-0.20
2023-01-20T01:11:54.919Z,-0.10
2023-01-20T01:14:45.308Z,-0.10
2023-01-20T01:17:33.486Z,-0.10
2023-01-20T01:20:29.499Z,-0.20
2023-01-20T01:23:22.219Z,-0.10
2023-01-20T01:26:09.816Z,-0.10
2023-01-20T01:29:00.291Z,-0.10
2023-01-20T01:31:58.814Z,-0.10
2023-01-20T01:34:44.039Z,-0.20
2023-01-20T01:37:57.232Z,-0.20
2023-01-20T01:40:57.374Z,-0.20
2023-01-20T01:43:42.214Z,-0.20
2023-01-20T01:46:42.260Z,-0.20
2023-01-20T01:49:47.469Z,-0.20
2023-01-20T01:52:48.665Z,-0.20
2023-01-20T01:55:25.697Z,-0.20
2023-01-20T02:01:21.918Z,-0.20
2023-01-20T02:04:33.832Z,-0.20
2023-01-20T02:07:39.287Z,-0.20
2023-01-20T02:10:37.250Z,-0.20
2023-01-20T02:13:17.343Z,-0.20
2023-01-20T02:16:51.461Z,-0.20
2023-01-20T02:20:21.808Z,-0.20
2023-01-20T02:24:00.838Z,-0.20
2023-01-20T02:27:25.839Z,-0.30
2023-01-20T02:30:35.943Z,-0.20
2023-01-20T02:33:47.284Z,-0.30
2023-01-20T02:36:46.565Z,-0.30
2023-01-20T02:39:29.080Z,-0.30
2023-01-20T02:42:12.582Z,-0.40
2023-01-20T02:45:07.857Z,-0.30
2023-01-20T02:47:52.267Z,-0.30
2023-01-20T02:51:03.409Z,-0.40
2023-01-20T02:55:03.977Z,-0.40
2023-01-20T02:57:45.523Z,-0.30
2023-01-20T03:00:37.174Z,-0.30
2023-01-20T03:03:28.940Z,-0.30
2023-01-20T03:06:29.735Z,-0.30
2023-01-20T03:09:12.905Z,-0.30
2023-01-20T03:12:20.356Z,-0.40
2023-01-20T03:14:58.681Z,-0.50
2023-01-20T03:17:37.142Z,-0.50
2023-01-20T03:20:51.339Z,-0.40
2023-01-20T03:23:30.616Z,-0.40
2023-01-20T03:26:03.140Z,-0.30
2023-01-20T03:29:19.981Z,-0.30
2023-01-20T03:32:23.097Z,-0.30
2023-01-20T03:35:00.418Z,-0.30
2023-01-20T03:37:40.029Z,-0.30
2023-01-20T03:40:47.259Z,-0.30
2023-01-20T03:43:54.077Z,-0.20
2023-01-20T03:46:55.457Z,-0.30
2023-01-20T03:49:56.479Z,-0.30
2023-01-20T03:53:19.676Z,-0.30
2023-01-20T03:56:15.409Z,-0.30
2023-01-20T03:58:55.446Z,-0.30
2023-01-20T04:01:56.451Z,-0.30
2023-01-20T04:04:45.898Z,-0.40
2023-01-20T04:08:05.046Z,-0.40
2023-01-20T04:11:02.175Z,-0.40
2023-01-20T04:13:34.343Z,-0.30
2023-01-20T04:17:23.683Z,-0.30
2023-01-20T04:20:02.350Z,-0.30
2023-01-20T04:23:00.046Z,-0.30
2023-01-20T04:26:09.520Z,-0.30
2023-01-20T04:28:48.667Z,-0.30
2023-01-20T04:31:36.266Z,-0.30
2023-01-20T04:34:35.743Z,-0.30
2023-01-20T04:37:26.586Z,-0.30
2023-01-20T04:40:10.386Z,-0.40
2023-01-20T04:42:46.699Z,-0.40
2023-01-20T04:45:30.031Z,-0.60
2023-01-20T04:48:23.574Z,-0.40
2023-01-20T04:51:06.113Z,-0.50
2023-01-20T04:56:52.199Z,-0.30
2023-01-20T04:59:29.542Z,-0.30
2023-01-20T05:02:54.029Z,-0.30
2023-01-20T05:05:40.299Z,-0.30
2023-01-20T05:08:26.330Z,-0.40
2023-01-20T05:11:18.698Z,-0.30
2023-01-20T05:13:55.345Z,-0.30
2023-01-20T05:16:53.163Z,-0.30
2023-01-20T05:19:33.622Z,-0.30
2023-01-20T05:22:09.456Z,-0.30
2023-01-20T05:24:49.797Z,-0.30
2023-01-20T05:27:55.994Z,-0.30
2023-01-20T05:30:33.919Z,-0.30
2023-01-20T05:33:35.443Z,-0.30
2023-01-20T05:36:23.582Z,-0.30
2023-01-20T05:39:22.763Z,-0.30
2023-01-20T05:42:17.963Z,-0.30
2023-01-20T05:44:54.941Z,-0.40
2023-01-20T05:47:44.348Z,-0.40
2023-01-20T05:50:39.307Z,-0.40
2023-01-20T05:53:33.178Z,-0.50
2023-01-20T05:56:39.784Z,-0.40
2023-01-20T05:59:19.451Z,-0.50
2023-01-20T06:02:01.012Z,-0.40
2023-01-20T06:04:52.121Z,-0.50
2023-01-20T06:07:49.246Z,-0.50
2023-01-20T06:10:36.021Z,-0.50
2023-01-20T06:13:12.829Z,-0.60
2023-01-20T06:16:00.268Z,-0.60
2023-01-20T06:18:38.210Z,-0.50
2023-01-20T06:21:39.069Z,-0.50
2023-01-20T06:24:24.291Z,-0.70
2023-01-20T06:27:34.021Z,-0.70
2023-01-20T06:30:33.525Z,-0.70
2023-01-20T06:33:41.863Z,-0.70
2023-01-20T06:36:52.331Z,-0.60
2023-01-20T06:39:20.380Z,-0.60
2023-01-20T06:42:11.612Z,-0.60
2023-01-20T06:45:10.402Z,-0.60
2023-01-20T06:47:53.268Z,-0.70
2023-01-20T06:50:37.003Z,-0.70
2023-01-20T06:53:07.745Z,-0.60
2023-01-20T06:55:37.590Z,-0.60
2023-01-20T06:58:10.178Z,-0.60
2023-01-20T07:00:40.790Z,-0.50
2023-01-20T07:03:16.323Z,-0.50
2023-01-20T07:06:09.157Z,-0.50
2023-01-20T07:08:45.323Z,-0.40
2023-01-20T07:11:25.147Z,-0.40
2023-01-20T07:14:07.432Z,-0.40
2023-01-20T07:16:46.240Z,-0.40
2023-01-20T07:19:31.138Z,-0.30
2023-01-20T07:22:20.184Z,-0.30
2023-01-20T07:25:01.660Z,-0.30
2023-01-20T07:28:08.952Z,-0.40
2023-01-20T07:30:56.574Z,-0.30
2023-01-20T07:34:37.037Z,-0.30
2023-01-20T07:37:15.373Z,-0.30
2023-01-20T07:40:20.181Z,-0.30
2023-01-20T07:43:03.683Z,-0.30
2023-01-20T07:46:10.004Z,-0.30
2023-01-20T07:51:51.762Z,-0.20
2023-01-20T07:55:24.916Z,-0.20
2023-01-20T07:58:32.647Z,-0.20
2023-01-20T08:01:43.825Z,-0.20
2023-01-20T08:04:45.319Z,-0.20
2023-01-20T08:07:29.320Z,-0.20
2023-01-20T08:10:50.348Z,-0.10
2023-01-20T08:13:53.544Z,-0.10
2023-01-20T08:16:52.004Z,-0.10
2023-01-20T08:19:59.985Z,-0.10
2023-01-20T08:26:43.886Z,-0.10
2023-01-20T08:29:51.700Z,-0.10
2023-01-20T08:33:05.220Z,-0.10
2023-01-20T08:37:03.063Z,0.00
2023-01-20T08:39:07.205Z,-0.10
2023-01-20T08:41:47.846Z,0.00
2023-01-20T08:44:38.777Z,0.10
2023-01-20T08:50:57.102Z,0.10
2023-01-20T08:53:35.357Z,0.10
2023-01-20T08:56:44.471Z,0.10
2023-01-20T09:01:36.161Z,0.10
2023-01-20T09:02:53.211Z,0.10
2023-01-20T09:05:24.710Z,0.20
2023-01-20T09:07:54.519Z,0.20
2023-01-20T09:10:40.443Z,0.20
2023-01-20T09:13:19.127Z,0.20
2023-01-20T09:16:38.948Z,0.30
2023-01-20T09:19:54.970Z,0.40
2023-01-20T09:22:40.597Z,0.50
2023-01-20T09:25:27.782Z,0.50
2023-01-20T09:31:27.462Z,0.60
2023-01-20T09:34:44.875Z,0.60
2023-01-20T09:38:16.372Z,0.50
2023-01-20T09:42:05.238Z,0.60
2023-01-20T09:44:59.111Z,0.50
2023-01-20T09:48:06.508Z,0.50
2023-01-20T09:51:26.949Z,0.50
2023-01-20T09:54:51.524Z,0.40
2023-01-20T09:58:13.747Z,0.50
2023-01-20T10:01:34.993Z,0.60
2023-01-20T10:16:00.827Z,0.80
2023-01-20T10:21:38.735Z,1.00
2023-01-20T10:23:20.188Z,1.00
2023-01-20T10:26:16.538Z,1.10
2023-01-20T10:30:34.285Z,1.10
2023-01-20T10:32:55.259Z,1.20
2023-01-20T10:36:05.624Z,1.30
2023-01-20T10:39:48.951Z,1.40
2023-01-20T10:41:48.962Z,1.50
2023-01-20T10:44:47.174Z,1.50
2023-01-20T10:47:51.727Z,1.60
2023-01-20T10:51:00.817Z,1.80
2023-01-20T10:54:07.352Z,1.80
2023-01-20T10:56:53.939Z,1.80
2023-01-20T10:59:40.609Z,1.90
2023-01-20T11:02:49.358Z,2.00
2023-01-20T11:05:34.316Z,1.90
2023-01-20T11:08:05.944Z,2.00
2023-01-20T11:10:44.067Z,2.20
2023-01-20T11:13:35.351Z,2.20
2023-01-20T11:16:16.900Z,2.30
2023-01-20T11:19:10.963Z,2.30
2023-01-20T11:21:42.159Z,2.40
2023-01-20T11:24:58.578Z,2.50
2023-01-20T11:27:51.662Z,2.50
2023-01-20T11:30:34.685Z,2.50
2023-01-20T11:33:23.889Z,2.60
2023-01-20T11:36:05.631Z,2.50
2023-01-20T11:38:49.091Z,2.50
2023-01-20T11:41:27.272Z,2.60
2023-01-20T11:43:57.634Z,2.60
2023-01-20T11:46:31.490Z,2.60
2023-01-20T11:49:24.933Z,2.50
2023-01-20T11:51:57.055Z,2.40
2023-01-20T11:54:30.099Z,2.50
2023-01-20T11:57:07.629Z,2.60
2023-01-20T11:59:37.333Z,2.50
2023-01-20T12:02:10.223Z,2.50
2023-01-20T12:05:13.169Z,2.60
2023-01-20T12:08:17.817Z,2.70
2023-01-20T12:11:05.189Z,2.80
2023-01-20T12:14:25.474Z,3.00
2023-01-20T12:17:32.767Z,3.10
2023-01-20T12:20:06.299Z,3.10
2023-01-20T12:23:15.117Z,3.30
2023-01-20T12:26:05.244Z,3.50
2023-01-20T12:28:49.499Z,3.50
2023-01-20T12:31:23.912Z,3.50
2023-01-20T12:34:00.577Z,3.50
2023-01-20T12:36:39.789Z,3.40
2023-01-20T12:39:17.334Z,3.50
2023-01-20T12:42:10.515Z,3.60
2023-01-20T12:45:04.423Z,3.60
2023-01-20T12:48:10.332Z,3.60
2023-01-20T12:50:52.555Z,3.70
2023-01-20T12:53:59.528Z,3.70
2023-01-20T12:56:57.780Z,3.70
2023-01-20T12:59:42.831Z,3.70
2023-01-20T13:02:15.797Z,3.70
2023-01-20T13:05:21.065Z,3.70
2023-01-20T13:08:22.612Z,3.70
2023-01-20T13:11:47.911Z,3.70
2023-01-20T13:14:21.838Z,3.80
2023-01-20T13:17:13.872Z,3.80
2023-01-20T13:19:43.185Z,3.80
2023-01-20T13:22:25.450Z,3.80
2023-01-20T13:24:58.755Z,3.70
2023-01-20T13:27:34.667Z,3.70
2023-01-20T13:30:06.931Z,3.80
2023-01-20T13:32:45.644Z,3.60
2023-01-20T13:35:24.766Z,3.70
2023-01-20T13:37:57.953Z,3.80
2023-01-20T13:40:37.591Z,3.80
2023-01-20T13:43:25.602Z,3.80
2023-01-20T13:46:19.162Z,3.80
2023-01-20T13:49:21.497Z,3.80
2023-01-20T13:51:50.297Z,4.00
2023-01-20T13:54:25.078Z,4.00
2023-01-20T13:56:52.902Z,4.10
2023-01-20T13:59:19.973Z,3.90
2023-01-20T14:01:47.156Z,4.00
2023-01-20T14:04:19.644Z,3.90
2023-01-20T14:06:52.648Z,3.90
2023-01-20T14:09:25.522Z,3.80
2023-01-20T14:11:55.994Z,3.80
2023-01-20T14:14:26.770Z,3.90
2023-01-20T14:16:56.336Z,4.00
2023-01-20T14:19:34.408Z,4.00
2023-01-20T14:22:29.901Z,4.10
2023-01-20T14:25:04.465Z,4.10
2023-01-20T14:28:09.823Z,4.20
2023-01-20T14:30:42.651Z,4.10
2023-01-20T14:33:43.901Z,4.10
2023-01-20T14:37:14.127Z,4.10
2023-01-20T14:40:00.108Z,4.00
2023-01-20T14:42:48.261Z,3.90
2023-01-20T14:45:45.941Z,3.80
2023-01-20T14:48:32.405Z,3.80
2023-01-20T14:54:33.310Z,3.60
2023-01-20T14:57:22.084Z,3.50
2023-01-20T15:00:02.625Z,3.40
2023-01-20T15:02:36.466Z,3.30
2023-01-20T15:05:29.841Z,3.20
2023-01-20T15:08:15.365Z,3.00
2023-01-20T15:10:42.927Z,3.00
2023-01-20T15:13:27.697Z,3.00
2023-01-20T15:16:36.077Z,2.90
2023-01-20T15:19:16.297Z,2.80
2023-01-20T15:21:48.699Z,2.80
2023-01-20T15:24:29.534Z,2.90
2023-01-20T15:27:00.490Z,2.90
2023-01-20T15:29:34.334Z,2.90
2023-01-20T15:32:09.981Z,2.90
2023-01-20T15:34:37.196Z,2.90
2023-01-20T15:37:18.870Z,2.90
2023-01-20T15:39:47.567Z,2.90
2023-01-20T15:42:15.395Z,2.90
2023-01-20T15:44:42.549Z,2.90
2023-01-20T15:48:12.419Z,2.90
2023-01-20T15:50:41.911Z,3.00
2023-01-20T15:53:12.510Z,3.00
2023-01-20T15:55:52.151Z,3.10
2023-01-20T15:58:32.993Z,3.10
2023-01-20T16:01:09.330Z,3.10
2023-01-20T16:03:36.683Z,3.20
2023-01-20T16:06:06.081Z,3.20
2023-01-20T16:08:40.105Z,3.20
2023-01-20T16:11:12.456Z,3.20
2023-01-20T16:13:42.191Z,3.20
2023-01-20T16:16:16.556Z,3.20
2023-01-20T16:18:54.160Z,3.20
2023-01-20T16:21:21.639Z,3.20
2023-01-20T16:23:49.170Z,3.30
2023-01-20T16:26:24.139Z,3.30
2023-01-20T16:28:56.780Z,3.30
2023-01-20T16:31:28.064Z,3.40
2023-01-20T16:34:05.140Z,3.30
2023-01-20T16:36:32.339Z,3.30
2023-01-20T16:39:00.683Z,3.30
2023-01-20T16:41:31.763Z,3.30
2023-01-20T16:44:01.314Z,3.30
2023-01-20T16:46:34.173Z,3.30
2023-01-20T16:49:03.021Z,3.20
2023-01-20T16:51:34.858Z,3.30
2023-01-20T16:54:02.594Z,3.20
2023-01-20T16:56:34.779Z,3.30
2023-01-20T16:59:03.065Z,3.30
2023-01-20T17:01:30.701Z,3.30
2023-01-20T17:04:02.837Z,3.30
2023-01-20T17:06:34.021Z,3.20
2023-01-20T17:09:04.428Z,3.10
2023-01-20T17:11:37.839Z,2.90
2023-01-20T17:14:08.088Z,2.80
2023-01-20T17:16:36.291Z,2.70
2023-01-20T17:19:05.020Z,2.70
2023-01-20T17:21:34.748Z,2.70
2023-01-20T17:24:04.379Z,2.70
2023-01-20T17:26:31.829Z,2.70
2023-01-20T17:29:05.185Z,2.60
2023-01-20T17:31:35.510Z,2.70
2023-01-20T17:34:21.193Z,2.60
2023-01-20T17:36:48.707Z,2.60
2023-01-20T17:39:17.103Z,2.60
2023-01-20T17:41:44.266Z,2.60
2023-01-20T17:44:13.256Z,2.50
2023-01-20T17:46:40.439Z,2.50
2023-01-20T17:49:13.059Z,2.60
2023-01-20T17:51:47.591Z,2.60
2023-01-20T17:54:14.902Z,2.70
2023-01-20T17:56:49.763Z,2.80
2023-01-20T17:59:31.745Z,2.80
2023-01-20T18:01:59.117Z,2.70
2023-01-20T18:04:29.524Z,2.80
2023-01-20T18:07:08.573Z,2.80
2023-01-20T18:09:48.525Z,2.80
2023-01-20T18:12:34.751Z,2.80
2023-01-20T18:15:15.196Z,2.80
2023-01-20T18:17:54.115Z,2.80
2023-01-20T18:20:21.590Z,2.70
2023-01-20T18:22:51.572Z,2.70
2023-01-20T18:25:21.389Z,2.70
2023-01-20T18:27:51.264Z,2.70
2023-01-20T18:30:21.960Z,2.70
2023-01-20T18:32:56.771Z,2.70
2023-01-20T18:35:29.004Z,2.80
2023-01-20T18:38:05.125Z,2.80
2023-01-20T18:40:33.621Z,2.80
2023-01-20T18:43:29.220Z,2.80
2023-01-20T18:46:11.159Z,2.80
2023-01-20T18:48:52.921Z,2.50
2023-01-20T18:51:32.092Z,2.20
2023-01-20T18:54:20.583Z,1.90
2023-01-20T18:56:53.103Z,1.70
2023-01-20T18:59:35.903Z,1.40
2023-01-20T19:02:24.017Z,1.20
2023-01-20T19:05:22.871Z,1.20
2023-01-20T19:08:01.510Z,1.10
2023-01-20T19:10:43.449Z,1.00
2023-01-20T19:13:25.643Z,0.90
2023-01-20T19:15:56.166Z,1.00
2023-01-20T19:18:30.979Z,0.90
2023-01-20T19:21:13.088Z,0.80
2023-01-20T19:23:56.951Z,0.80
2023-01-20T19:26:50.621Z,0.80
2023-01-20T19:29:29.609Z,0.80
2023-01-20T19:32:07.186Z,0.70
2023-01-20T19:34:36.802Z,0.70
2023-01-20T19:37:15.248Z,0.70
2023-01-20T19:39:48.727Z,0.70
2023-01-20T19:42:31.170Z,0.60
2023-01-20T19:45:04.582Z,0.60
2023-01-20T19:47:58.101Z,0.70
2023-01-20T19:50:28.136Z,0.70
2023-01-20T19:52:57.867Z,0.70
2023-01-20T19:55:43.104Z,0.70
2023-01-20T19:58:25.340Z,0.60
2023-01-20T20:04:32.851Z,0.60
2023-01-20T20:07:24.958Z,0.60
2023-01-20T20:10:12.578Z,0.70
2023-01-20T20:12:53.300Z,0.70
2023-01-20T20:15:33.268Z,0.60
2023-01-20T20:18:03.639Z,0.50
2023-01-20T20:20:35.892Z,0.50
2023-01-20T20:26:29.368Z,0.50
2023-01-20T20:29:04.354Z,0.40
2023-01-20T20:31:41.350Z,0.40
2023-01-20T20:35:00.655Z,0.40
2023-01-20T20:37:29.224Z,0.30
2023-01-20T20:40:05.676Z,0.30
2023-01-20T20:42:49.263Z,0.20
2023-01-20T20:45:24.348Z,0.20
2023-01-20T20:47:57.780Z,0.30
2023-01-20T20:50:37.500Z,0.30
2023-01-20T20:53:18.575Z,0.40
2023-01-20T20:55:52.272Z,0.40
2023-01-20T20:58:55.527Z,0.30
2023-01-20T21:01:34.778Z,0.20
2023-01-20T21:04:15.497Z,0.10
2023-01-20T21:07:09.504Z,0.10
2023-01-20T21:10:10.493Z,0.10
2023-01-20T21:12:44.340Z,0.10
2023-01-20T21:15:34.787Z,0.10
2023-01-20T21:18:22.287Z,0.10
2023-01-20T21:21:21.384Z,0.00
2023-01-20T21:24:28.086Z,0.10
2023-01-20T21:27:27.011Z,0.00
2023-01-20T21:29:59.837Z,0.10
2023-01-20T21:32:43.656Z,0.10
2023-01-20T21:35:13.259Z,0.10
2023-01-20T21:38:39.734Z,0.00
2023-01-20T21:41:21.758Z,0.00
2023-01-20T21:44:37.066Z,0.00
2023-01-20T21:47:23.659Z,0.00
2023-01-20T21:50:17.077Z,-0.10
2023-01-20T21:52:48.177Z,-0.10
2023-01-20T21:55:19.709Z,-0.20
2023-01-20T21:57:50.161Z,-0.10
2023-01-20T22:00:24.292Z,-0.10
2023-01-20T22:02:51.699Z,0.00
2023-01-20T22:05:27.099Z,-0.10
2023-01-20T22:08:06.758Z,-0.10
2023-01-20T22:10:43.123Z,-0.10
2023-01-20T22:13:17.345Z,-0.10
2023-01-20T22:15:47.337Z,-0.10
2023-01-20T22:18:28.033Z,-0.10
2023-01-20T22:21:09.724Z,-0.10
2023-01-20T22:23:42.387Z,-0.10
2023-01-20T22:26:21.035Z,-0.10
2023-01-20T22:28:48.833Z,-0.20
2023-01-20T22:31:20.115Z,-0.30
2023-01-20T22:33:58.572Z,-0.30
2023-01-20T22:36:32.916Z,-0.30
2023-01-20T22:39:10.047Z,-0.30
2023-01-20T22:41:42.290Z,-0.30
2023-01-20T22:44:18.031Z,-0.30
2023-01-20T22:46:51.424Z,-0.30
2023-01-20T22:49:22.694Z,-0.30
2023-01-20T22:51:58.671Z,-0.30
2023-01-20T22:54:33.851Z,-0.20
2023-01-20T22:57:05.959Z,-0.20
2023-01-20T22:59:39.030Z,-0.20
2023-01-20T23:02:07.254Z,-0.30
2023-01-20T23:04:43.930Z,-0.30
2023-01-20T23:07:20.192Z,-0.30
2023-01-20T23:09:54.364Z,-0.30
2023-01-20T23:12:24.686Z,-0.30
2023-01-20T23:15:10.491Z,-0.40
2023-01-20T23:17:40.299Z,-0.30
2023-01-20T23:20:18.544Z,-0.30
2023-01-20T23:22:57.532Z,-0.30
2023-01-20T23:25:35.863Z,-0.30
2023-01-20T23:28:07.831Z,-0.30
2023-01-20T23:30:39.344Z,-0.40
2023-01-20T23:33:14.613Z,-0.30
2023-01-20T23:35:50.056Z,-0.30
2023-01-20T23:38:19.243Z,-0.30
2023-01-20T23:40:51.788Z,-0.30
2023-01-20T23:43:23.637Z,-0.30
2023-01-20T23:45:50.993Z,-0.30
2023-01-20T23:48:22.008Z,-0.30
2023-01-20T23:51:38.532Z,-0.30
2023-01-20T23:53:46.125Z,-0.30
2023-01-20T23:56:21.055Z,-0.20
2023-01-20T23:58:50.763Z,-0.20
